Time;durP1;ratioP1;P1;durP2;ratioP2;P2;SDS_P1;SDS_P2;PMS_P1;PMS_P2;Temp;Humidity;BMP_temperature;BMP_pressure;BME280_temperature;BME280_humidity;BME280_pressure;Samples;Min_cycle;Max_cycle;Signal;HPM_P1;HPM_P2
2022/12/09 00:00:18;;;;;;;21.30;16.23;;;2.50;99.90;;;;;;5029429;28;20440;-82
2022/12/09 00:02:44;;;;;;;22.00;16.17;;;2.40;99.90;;;;;;5034518;28;20444;-82
2022/12/09 00:05:11;;;;;;;22.20;15.77;;;2.40;99.90;;;;;;5034983;28;20485;-82
2022/12/09 00:07:38;;;;;;;22.00;15.30;;;2.40;99.90;;;;;;5034816;28;20463;-83
2022/12/09 00:10:06;;;;;;;22.53;15.80;;;2.40;99.90;;;;;;5035139;28;20456;-82
2022/12/09 00:12:32;;;;;;;26.87;21.30;;;2.30;99.90;;;;;;5030646;28;20436;-85
2022/12/09 00:14:59;;;;;;;24.70;16.83;;;2.40;99.90;;;;;;5024939;28;20444;-82
2022/12/09 00:17:27;;;;;;;23.93;17.23;;;2.40;99.90;;;;;;5034011;28;20467;-81
2022/12/09 00:19:54;;;;;;;24.77;17.17;;;2.50;99.90;;;;;;5034469;28;20816;-80
2022/12/09 00:22:21;;;;;;;22.57;16.10;;;2.50;99.90;;;;;;5033455;28;20455;-80
2022/12/09 00:24:48;;;;;;;23.70;15.43;;;2.40;99.90;;;;;;5034246;28;21025;-80
2022/12/09 00:27:14;;;;;;;25.57;16.40;;;2.20;99.90;;;;;;5034512;28;20448;-81
2022/12/09 00:29:41;;;;;;;29.37;17.10;;;2.20;99.90;;;;;;5020669;28;20464;-81
2022/12/09 00:32:08;;;;;;;25.53;17.27;;;2.20;99.90;;;;;;5029979;28;20460;-81
2022/12/09 00:34:36;;;;;;;24.93;16.60;;;2.20;99.90;;;;;;5032259;28;20814;-79
2022/12/09 00:37:03;;;;;;;27.53;16.97;;;2.20;99.90;;;;;;5032834;28;20444;-82
2022/12/09 00:39:29;;;;;;;25.00;17.30;;;2.10;99.90;;;;;;5020201;28;20441;-82
2022/12/09 00:41:56;;;;;;;29.48;23.95;;;2.10;99.90;;;;;;5032028;28;20423;-83
2022/12/09 00:44:23;;;;;;;26.77;18.10;;;2.20;99.90;;;;;;5033439;28;20207;-83
2022/12/09 00:46:50;;;;;;;28.00;18.00;;;2.20;99.90;;;;;;5033841;28;20954;-82
2022/12/09 00:49:16;;;;;;;26.30;16.33;;;2.20;99.90;;;;;;5033648;28;20452;-81
2022/12/09 00:51:45;;;;;;;24.50;17.00;;;2.30;99.90;;;;;;5032794;28;20986;-79
2022/12/09 00:54:12;;;;;;;21.33;16.70;;;2.20;99.90;;;;;;5034500;28;20535;-80
2022/12/09 00:56:38;;;;;;;27.20;16.57;;;2.20;99.90;;;;;;5033854;28;20460;-81
2022/12/09 00:59:05;;;;;;;23.93;17.33;;;2.20;99.90;;;;;;5033619;28;20460;-83
2022/12/09 01:01:32;;;;;;;26.87;16.30;;;2.30;99.90;;;;;;5034119;28;20451;-82
2022/12/09 01:04:00;;;;;;;24.63;16.73;;;2.30;99.90;;;;;;5034443;28;20459;-81
2022/12/09 01:06:27;;;;;;;25.23;16.03;;;2.30;99.90;;;;;;5033298;28;20997;-83
2022/12/09 01:08:55;;;;;;;24.00;16.33;;;2.20;99.90;;;;;;5034229;28;20939;-83
2022/12/09 01:11:25;;;;;;;22.23;15.73;;;2.10;99.90;;;;;;5032498;28;20449;-83
2022/12/09 01:13:53;;;;;;;24.43;15.33;;;2.20;99.90;;;;;;5034466;28;20452;-85
2022/12/09 01:16:21;;;;;;;23.17;16.00;;;2.10;99.90;;;;;;5032395;28;20443;-78
2022/12/09 01:18:49;;;;;;;23.27;16.00;;;2.10;99.90;;;;;;5022469;28;20487;-81
2022/12/09 01:21:16;;;;;;;21.40;14.93;;;2.10;99.90;;;;;;5033737;28;20928;-77
2022/12/09 01:23:42;;;;;;;33.10;17.03;;;2.10;99.90;;;;;;5037641;28;20452;-86
2022/12/09 01:26:11;;;;;;;25.03;17.07;;;2.20;99.90;;;;;;5041434;28;20484;-90
2022/12/09 01:28:39;;;;;;;22.70;15.70;;;2.20;99.90;;;;;;5030572;28;20973;-90
2022/12/09 01:31:07;;;;;;;25.13;15.37;;;2.20;99.90;;;;;;5039724;28;20823;-88
2022/12/09 01:33:34;;;;;;;25.43;15.97;;;2.20;99.90;;;;;;5041235;28;20447;-92
2022/12/09 01:36:04;;;;;;;24.50;16.07;;;2.30;99.90;;;;;;5042314;28;20448;-92
2022/12/09 01:38:31;;;;;;;22.90;16.50;;;2.30;99.90;;;;;;5044240;28;20440;-90
2022/12/09 01:40:58;;;;;;;25.90;15.47;;;2.20;99.90;;;;;;5044318;28;20436;-87
2022/12/09 01:43:27;;;;;;;26.53;16.13;;;2.20;99.90;;;;;;5043562;28;20444;-87
2022/12/09 01:45:54;;;;;;;26.10;17.00;;;2.30;99.90;;;;;;5027170;28;20488;-92
2022/12/09 01:48:25;;;;;;;23.50;16.30;;;2.30;99.90;;;;;;5038178;28;20448;-85
2022/12/09 01:50:56;;;;;;;22.03;15.60;;;2.30;99.90;;;;;;5038287;28;20472;-89
2022/12/09 01:53:26;;;;;;;21.63;15.97;;;2.20;99.90;;;;;;5028606;28;20453;-83
2022/12/09 01:55:55;;;;;;;27.93;17.50;;;2.00;99.90;;;;;;5039336;28;20464;-91
2022/12/09 01:58:22;;;;;;;23.50;15.53;;;2.00;99.90;;;;;;5041230;28;20924;-87
2022/12/09 02:00:50;;;;;;;22.07;15.57;;;2.10;99.90;;;;;;5041735;28;20448;-81
2022/12/09 02:03:17;;;;;;;27.27;16.50;;;2.20;99.90;;;;;;5041976;28;20464;-85
2022/12/09 02:05:44;;;;;;;22.77;15.87;;;2.20;99.90;;;;;;5038672;28;20495;-84
2022/12/09 02:08:13;;;;;;;23.73;16.43;;;2.20;99.90;;;;;;5039158;28;20472;-82
2022/12/09 02:10:48;;;;;;;22.43;15.60;;;2.20;99.90;;;;;;5024941;28;20450;-82
2022/12/09 02:13:24;;;;;;;23.00;15.70;;;2.20;99.90;;;;;;5037371;28;20822;-85
2022/12/09 02:15:54;;;;;;;25.10;17.57;;;2.20;99.90;;;;;;5036883;28;20826;-82
2022/12/09 02:18:26;;;;;;;21.77;15.23;;;2.20;99.90;;;;;;5022467;28;20951;-80
2022/12/09 02:20:58;;;;;;;20.63;15.23;;;2.10;99.90;;;;;;5036252;28;20793;-85
2022/12/09 02:23:31;;;;;;;25.03;16.43;;;2.10;99.90;;;;;;5036869;28;20788;-80
2022/12/09 02:26:10;;;;;;;26.40;16.07;;;2.10;99.90;;;;;;5036581;28;20491;-79
2022/12/09 02:28:57;;;;;;;24.67;16.37;;;1.90;99.90;;;;;;5036540;28;20440;-81
2022/12/09 02:31:43;;;;;;;26.33;16.70;;;1.90;99.90;;;;;;5034985;28;20445;-83
2022/12/09 02:34:14;;;;;;;31.73;16.40;;;2.00;99.90;;;;;;5035757;28;20455;-81
2022/12/09 02:36:52;;;;;;;26.47;16.30;;;1.80;99.90;;;;;;5036357;28;20440;-83
2022/12/09 02:39:22;;;;;;;26.33;16.63;;;1.70;99.90;;;;;;5042406;28;20450;-93
2022/12/09 02:41:52;;;;;;;25.20;16.73;;;1.60;99.90;;;;;;5042646;28;20444;-84
2022/12/09 02:44:23;;;;;;;26.30;17.07;;;1.70;99.90;;;;;;5037454;28;20969;-81
2022/12/09 02:46:50;;;;;;;25.20;16.57;;;1.60;99.90;;;;;;5035712;28;20476;-85
2022/12/09 02:49:21;;;;;;;24.67;16.30;;;1.50;99.90;;;;;;5024072;28;20461;-78
2022/12/09 02:51:50;;;;;;;27.03;16.43;;;1.50;99.90;;;;;;5031982;28;20479;-78
2022/12/09 02:54:18;;;;;;;24.63;16.17;;;1.60;99.90;;;;;;5032420;28;20449;-84
2022/12/09 02:56:52;;;;;;;27.40;17.83;;;1.50;99.90;;;;;;5036050;28;20468;-81
2022/12/09 02:59:19;;;;;;;27.27;17.37;;;1.50;99.90;;;;;;5035854;28;20440;-80
2022/12/09 03:01:51;;;;;;;28.33;17.60;;;1.50;99.90;;;;;;5035605;28;20460;-85
2022/12/09 03:04:26;;;;;;;28.07;17.47;;;1.50;99.90;;;;;;5029207;28;20441;-83
2022/12/09 03:06:55;;;;;;;25.67;17.40;;;1.40;99.90;;;;;;5028721;28;20479;-84
2022/12/09 03:09:26;;;;;;;27.83;17.97;;;1.30;99.90;;;;;;5035219;28;20456;-83
2022/12/09 03:11:56;;;;;;;32.10;18.43;;;1.20;99.90;;;;;;5033997;28;20547;-85
2022/12/09 03:14:29;;;;;;;32.50;18.07;;;1.20;99.90;;;;;;5036202;28;20467;-84
2022/12/09 03:17:00;;;;;;;30.10;17.87;;;1.10;99.90;;;;;;5036356;28;20809;-80
2022/12/09 03:19:34;;;;;;;33.93;17.80;;;1.20;99.90;;;;;;5022784;28;20453;-80
2022/12/09 03:22:06;;;;;;;32.57;17.87;;;1.20;99.90;;;;;;5036666;28;20464;-82
2022/12/09 03:24:36;;;;;;;27.67;17.20;;;1.20;99.90;;;;;;5022353;28;20432;-81
2022/12/09 03:27:07;;;;;;;29.53;16.77;;;1.20;99.90;;;;;;5036225;28;20491;-85
2022/12/09 03:29:38;;;;;;;27.77;16.07;;;1.10;99.90;;;;;;5034787;28;20453;-82
2022/12/09 03:32:05;;;;;;;31.47;16.87;;;1.00;99.90;;;;;;5035329;28;20447;-86
2022/12/09 03:34:37;;;;;;;32.20;19.03;;;1.00;99.90;;;;;;5034173;28;20951;-81
2022/12/09 03:37:06;;;;;;;35.77;19.23;;;1.00;99.90;;;;;;5034200;28;20451;-83
2022/12/09 03:39:38;;;;;;;33.50;19.30;;;1.00;99.90;;;;;;5035188;28;20940;-84
2022/12/09 03:42:09;;;;;;;33.97;18.67;;;1.00;99.90;;;;;;5034933;28;20785;-80
2022/12/09 03:44:40;;;;;;;39.83;18.63;;;1.10;99.90;;;;;;5035307;28;20907;-84
2022/12/09 03:47:08;;;;;;;34.70;19.63;;;1.00;99.90;;;;;;5035669;28;20488;-81
2022/12/09 03:49:38;;;;;;;37.70;19.70;;;1.10;99.90;;;;;;5034820;28;20928;-83
2022/12/09 03:52:11;;;;;;;42.87;20.43;;;1.10;99.90;;;;;;5035104;28;20467;-81
2022/12/09 03:54:42;;;;;;;38.97;19.33;;;1.10;99.90;;;;;;5033873;28;20979;-80
2022/12/09 03:57:12;;;;;;;42.40;19.90;;;1.10;99.90;;;;;;5034760;28;20444;-79
2022/12/09 03:59:39;;;;;;;43.07;20.47;;;1.10;99.90;;;;;;5035087;28;20858;-83
2022/12/09 04:02:07;;;;;;;42.70;19.80;;;0.80;99.90;;;;;;5034702;28;20448;-81
2022/12/09 04:04:38;;;;;;;42.60;19.67;;;0.90;99.90;;;;;;5034024;28;20440;-82
2022/12/09 04:07:05;;;;;;;50.93;18.87;;;1.00;99.90;;;;;;5034954;28;20484;-84
2022/12/09 04:09:32;;;;;;;64.20;21.87;;;1.00;99.90;;;;;;5034781;28;20463;-82
2022/12/09 04:11:59;;;;;;;67.63;21.03;;;0.90;99.90;;;;;;5035340;28;20802;-81
2022/12/09 04:14:26;;;;;;;86.43;21.87;;;0.80;99.90;;;;;;5034598;28;20848;-84
2022/12/09 04:16:53;;;;;;;109.27;20.93;;;0.80;99.90;;;;;;5034917;28;20443;-85
2022/12/09 04:19:19;;;;;;;107.88;21.67;;;0.90;99.90;;;;;;5033693;28;20686;-81
2022/12/09 04:21:51;;;;;;;67.27;20.07;;;0.90;99.90;;;;;;5035012;28;20196;-86
2022/12/09 04:24:17;;;;;;;64.13;18.90;;;1.00;99.90;;;;;;5035701;28;20527;-84
2022/12/09 04:26:45;;;;;;;87.00;21.30;;;1.00;99.90;;;;;;5035352;28;20487;-84
2022/12/09 04:29:12;;;;;;;96.03;19.53;;;1.00;99.90;;;;;;5035039;28;20436;-87
2022/12/09 04:31:39;;;;;;;93.27;19.53;;;1.10;99.90;;;;;;5034487;28;20437;-87
2022/12/09 04:34:06;;;;;;;147.35;22.73;;;1.00;99.90;;;;;;5034735;28;20916;-86
2022/12/09 04:36:33;;;;;;;104.80;21.97;;;1.00;99.90;;;;;;5035513;28;20211;-89
2022/12/09 04:39:01;;;;;;;93.03;20.30;;;1.10;99.90;;;;;;5034820;28;20455;-85
2022/12/09 04:41:28;;;;;;;92.87;19.73;;;1.10;99.90;;;;;;5035555;28;20454;-88
2022/12/09 04:43:55;;;;;;;65.23;18.77;;;1.20;99.90;;;;;;5033321;28;20607;-85
2022/12/09 04:46:21;;;;;;;112.77;21.37;;;1.20;99.90;;;;;;5034387;28;20484;-87
2022/12/09 04:48:49;;;;;;;94.63;18.73;;;1.20;99.90;;;;;;5033899;28;20455;-86
2022/12/09 04:51:17;;;;;;;131.70;22.97;;;1.10;99.90;;;;;;5029246;28;20488;-88
2022/12/09 04:53:44;;;;;;;100.30;19.20;;;1.10;99.90;;;;;;5028431;28;20453;-86
2022/12/09 04:56:14;;;;;;;71.57;18.00;;;1.00;99.90;;;;;;5024493;28;20838;-86
2022/12/09 04:58:43;;;;;;;99.27;20.77;;;0.90;99.90;;;;;;5034390;28;20448;-84
2022/12/09 05:01:11;;;;;;;58.37;17.30;;;0.90;99.90;;;;;;5033168;28;20480;-87
2022/12/09 05:03:38;;;;;;;76.35;22.35;;;0.80;99.90;;;;;;5033792;28;20439;-84
2022/12/09 05:06:06;;;;;;;76.03;19.53;;;0.80;99.90;;;;;;5034091;28;20223;-86
2022/12/09 05:08:34;;;;;;;108.27;21.60;;;0.80;99.90;;;;;;5034117;28;20464;-89
2022/12/09 05:11:00;;;;;;;65.57;20.03;;;0.80;99.90;;;;;;5020186;28;20928;-87
2022/12/09 05:13:30;;;;;;;59.10;18.70;;;0.80;99.90;;;;;;5034039;28;20920;-88
2022/12/09 05:16:00;;;;;;;81.20;18.97;;;0.60;99.90;;;;;;5032379;28;20464;-87
2022/12/09 05:18:27;;;;;;;64.83;19.87;;;0.70;99.90;;;;;;5029952;28;20464;-87
2022/12/09 05:20:54;;;;;;;47.67;18.07;;;0.70;99.90;;;;;;5029609;28;20839;-87
2022/12/09 05:23:21;;;;;;;84.97;20.70;;;0.70;99.90;;;;;;5027704;28;20463;-88
2022/12/09 05:25:48;;;;;;;87.43;20.13;;;0.80;99.90;;;;;;5027932;28;20470;-85
2022/12/09 05:28:15;;;;;;;41.27;18.63;;;0.70;99.90;;;;;;5027375;28;20471;-84
2022/12/09 05:30:43;;;;;;;49.47;18.13;;;0.80;99.90;;;;;;5032283;28;20460;-85
2022/12/09 05:33:10;;;;;;;45.67;18.77;;;1.00;99.90;;;;;;5030964;28;20444;-87
2022/12/09 05:35:37;;;;;;;50.80;18.80;;;0.80;99.90;;;;;;5032221;28;20961;-87
2022/12/09 05:38:04;;;;;;;40.13;17.90;;;0.70;99.90;;;;;;5034143;28;20456;-87
2022/12/09 05:40:31;;;;;;;49.90;18.00;;;0.80;99.90;;;;;;5032573;28;20451;-87
2022/12/09 05:42:58;;;;;;;45.80;18.17;;;0.70;99.90;;;;;;5034458;28;20455;-88
2022/12/09 05:45:25;;;;;;;41.60;18.87;;;0.60;99.90;;;;;;5034102;28;20454;-86
2022/12/09 05:47:54;;;;;;;51.53;19.50;;;0.50;99.90;;;;;;5033817;28;20959;-88
2022/12/09 05:50:21;;;;;;;47.33;19.40;;;0.60;99.90;;;;;;5033964;28;20448;-89
2022/12/09 05:52:48;;;;;;;35.77;18.30;;;0.70;99.90;;;;;;5034480;28;20452;-88
2022/12/09 05:55:14;;;;;;;39.07;17.63;;;0.60;99.90;;;;;;5034223;28;20816;-87
2022/12/09 05:57:41;;;;;;;44.10;19.30;;;0.60;99.90;;;;;;5034577;28;20457;-88
2022/12/09 06:00:09;;;;;;;49.13;16.57;;;0.60;99.90;;;;;;5036117;28;20540;-85
2022/12/09 06:02:36;;;;;;;35.43;18.00;;;0.60;99.90;;;;;;5013903;28;20454;-88
2022/12/09 06:05:05;;;;;;;40.57;18.77;;;0.40;99.90;;;;;;5014745;28;20799;-88
2022/12/09 06:07:31;;;;;;;33.63;18.07;;;0.40;99.90;;;;;;5013667;28;20830;-86
2022/12/09 06:09:58;;;;;;;50.60;18.90;;;0.50;99.90;;;;;;5015506;28;20461;-88
2022/12/09 06:12:25;;;;;;;34.50;16.90;;;0.60;99.90;;;;;;5019672;28;20467;-91
2022/12/09 06:14:52;;;;;;;42.47;18.33;;;0.60;99.90;;;;;;5019330;28;20444;-87
2022/12/09 06:17:19;;;;;;;59.27;18.20;;;0.70;99.90;;;;;;5019456;28;20449;-91
2022/12/09 06:19:47;;;;;;;39.50;19.43;;;0.80;99.90;;;;;;5021845;28;20449;-88
2022/12/09 06:22:15;;;;;;;49.70;19.13;;;0.70;99.90;;;;;;5019586;28;20445;-91
2022/12/09 06:24:42;;;;;;;32.93;17.27;;;0.60;99.90;;;;;;5020600;28;20433;-90
2022/12/09 06:27:09;;;;;;;34.13;18.23;;;0.70;99.90;;;;;;5014276;28;20503;-88
2022/12/09 06:29:36;;;;;;;29.83;17.20;;;0.70;99.90;;;;;;5014600;28;20465;-87
2022/12/09 06:32:03;;;;;;;35.10;17.33;;;0.70;99.90;;;;;;5014686;28;20446;-87
2022/12/09 06:34:31;;;;;;;41.37;17.83;;;0.60;99.90;;;;;;5015248;28;20444;-88
2022/12/09 06:36:57;;;;;;;36.40;19.57;;;0.60;99.90;;;;;;5014606;28;20447;-89
2022/12/09 06:39:26;;;;;;;30.67;17.97;;;0.60;99.90;;;;;;5016051;28;20795;-88
2022/12/09 06:41:52;;;;;;;41.13;18.00;;;0.50;99.90;;;;;;5017712;28;20446;-88
2022/12/09 06:44:19;;;;;;;53.93;18.03;;;0.40;99.90;;;;;;5017194;28;20913;-88
2022/12/09 06:46:46;;;;;;;34.67;17.00;;;0.20;99.90;;;;;;5017576;28;20484;-90
2022/12/09 06:49:13;;;;;;;54.92;28.90;;;0.30;99.90;;;;;;5018356;28;20451;-88
2022/12/09 06:51:40;;;;;;;62.40;19.17;;;0.60;99.90;;;;;;5019876;28;20220;-90
2022/12/09 06:54:08;;;;;;;43.27;18.80;;;0.70;99.90;;;;;;5020052;28;20480;-91
2022/12/09 06:56:37;;;;;;;61.53;19.53;;;0.50;99.90;;;;;;5020466;28;20468;-90
2022/12/09 06:59:06;;;;;;;67.60;17.23;;;0.60;99.90;;;;;;5020339;28;20537;-88
2022/12/09 07:01:33;;;;;;;39.13;16.77;;;0.70;99.90;;;;;;5017485;28;20455;-87
2022/12/09 07:04:00;;;;;;;29.13;16.60;;;0.70;99.90;;;;;;5018934;28;20456;-88
2022/12/09 07:06:28;;;;;;;48.40;17.77;;;0.70;99.90;;;;;;5018961;28;20945;-86
2022/12/09 07:08:56;;;;;;;48.17;17.27;;;0.50;99.90;;;;;;5017948;28;20472;-89
2022/12/09 07:11:24;;;;;;;47.27;16.97;;;0.60;99.90;;;;;;5021235;28;20956;-90
2022/12/09 07:13:59;;;;;;;62.17;19.60;;;0.50;99.90;;;;;;5028235;28;20524;-88
2022/12/09 07:16:27;;;;;;;80.03;21.10;;;0.60;99.90;;;;;;5023787;28;20433;-86
2022/12/09 07:18:54;;;;;;;50.50;18.27;;;0.60;99.90;;;;;;5023369;28;20532;-90
2022/12/09 07:21:22;;;;;;;92.77;20.47;;;0.70;99.90;;;;;;5032554;28;20497;-90
2022/12/09 07:23:50;;;;;;;111.37;19.43;;;0.70;99.90;;;;;;5036252;28;20445;-91
2022/12/09 07:26:17;;;;;;;70.60;19.60;;;0.60;99.90;;;;;;5035147;28;20444;-89
2022/12/09 07:28:45;;;;;;;45.53;17.37;;;0.40;99.90;;;;;;5038261;28;20480;-90
2022/12/09 07:31:20;;;;;;;49.17;19.97;;;0.40;99.90;;;;;;5039914;28;20468;-89
2022/12/09 07:33:50;;;;;;;45.73;18.50;;;0.40;99.90;;;;;;5046035;28;20455;-89
2022/12/09 07:36:18;;;;;;;35.73;17.17;;;0.50;99.90;;;;;;5021718;28;20441;-91
2022/12/09 07:38:45;;;;;;;56.40;21.00;;;0.60;99.90;;;;;;5016810;28;20453;-86
2022/12/09 07:41:16;;;;;;;37.93;18.20;;;0.40;99.90;;;;;;5015738;28;20449;-89
2022/12/09 07:43:44;;;;;;;51.60;18.43;;;0.50;99.90;;;;;;5015959;28;20445;-89
2022/12/09 07:46:11;;;;;;;57.37;19.10;;;0.70;99.90;;;;;;5016247;28;20464;-87
2022/12/09 07:48:40;;;;;;;43.23;17.97;;;0.70;99.90;;;;;;5016207;28;20949;-88
2022/12/09 07:51:07;;;;;;;30.37;19.00;;;0.70;99.90;;;;;;5014727;28;20464;-87
2022/12/09 07:53:35;;;;;;;42.33;20.00;;;0.70;99.90;;;;;;5017400;28;20433;-87
2022/12/09 07:56:02;;;;;;;37.33;18.07;;;0.80;99.90;;;;;;5020811;28;20465;-93
2022/12/09 07:58:32;;;;;;;52.63;19.60;;;0.90;99.90;;;;;;5022253;28;20449;-91
2022/12/09 08:01:05;;;;;;;45.27;19.07;;;0.90;99.90;;;;;;5030151;28;20424;-88
2022/12/09 08:03:32;;;;;;;34.73;18.37;;;1.00;99.90;;;;;;5036747;28;21027;-89
2022/12/09 08:06:00;;;;;;;58.63;20.73;;;1.10;99.90;;;;;;5041101;28;20455;-82
2022/12/09 08:08:27;;;;;;;66.40;20.37;;;0.90;99.90;;;;;;5042262;28;20494;-87
2022/12/09 08:10:54;;;;;;;77.13;21.43;;;1.00;99.90;;;;;;5041522;28;20452;-89
2022/12/09 08:13:21;;;;;;;60.33;20.57;;;1.00;99.90;;;;;;5038731;28;20448;-89
2022/12/09 08:15:48;;;;;;;88.30;22.47;;;1.00;99.90;;;;;;5038141;28;20459;-88
2022/12/09 08:18:16;;;;;;;39.43;20.20;;;0.80;99.90;;;;;;5033269;28;20854;-89
2022/12/09 08:20:43;;;;;;;55.10;20.63;;;1.10;99.90;;;;;;5036667;28;20818;-90
2022/12/09 08:23:11;;;;;;;51.30;22.07;;;1.10;99.90;;;;;;5033634;28;20445;-89
2022/12/09 08:25:38;;;;;;;61.10;20.33;;;1.10;99.90;;;;;;5037213;28;20444;-89
2022/12/09 08:28:05;;;;;;;51.43;21.53;;;1.20;99.90;;;;;;5039558;28;20579;-90
2022/12/09 08:30:32;;;;;;;108.03;21.43;;;0.90;99.90;;;;;;5037582;28;20453;-88
2022/12/09 08:32:59;;;;;;;76.07;20.07;;;1.00;99.90;;;;;;5037373;28;20448;-88
2022/12/09 08:35:28;;;;;;;71.17;19.53;;;1.00;99.90;;;;;;5036788;28;20471;-89
2022/12/09 08:37:55;;;;;;;61.47;20.10;;;1.20;99.90;;;;;;5038190;28;20539;-88
2022/12/09 08:40:24;;;;;;;52.87;18.43;;;1.20;99.90;;;;;;5033882;28;20567;-85
2022/12/09 08:42:50;;;;;;;60.77;18.50;;;1.20;99.90;;;;;;5022841;28;20433;-83
2022/12/09 08:45:17;;;;;;;58.23;19.13;;;1.30;99.90;;;;;;5018799;28;20453;-87
2022/12/09 08:47:46;;;;;;;67.50;18.50;;;1.30;99.90;;;;;;5022146;28;20991;-84
2022/12/09 08:50:13;;;;;;;55.42;25.80;;;1.10;99.90;;;;;;5030147;28;20947;-79
2022/12/09 08:52:43;;;;;;;48.63;21.43;;;1.20;99.90;;;;;;5035667;28;20192;-89
2022/12/09 08:55:10;;;;;;;42.67;19.83;;;1.00;99.90;;;;;;5037643;28;20452;-84
2022/12/09 08:57:38;;;;;;;54.67;20.87;;;1.30;99.90;;;;;;5035855;28;20547;-90
2022/12/09 09:00:07;;;;;;;81.17;20.60;;;1.40;99.90;;;;;;5035252;28;20441;-90
2022/12/09 09:02:34;;;;;;;52.10;20.03;;;1.50;99.90;;;;;;5037685;28;20440;-90
2022/12/09 09:05:01;;;;;;;60.70;22.77;;;1.60;99.90;;;;;;5038143;28;20925;-89
2022/12/09 09:07:29;;;;;;;96.47;22.53;;;1.50;99.90;;;;;;5037622;28;20235;-90
2022/12/09 09:09:57;;;;;;;105.17;19.43;;;1.50;99.90;;;;;;5037496;28;20437;-90
2022/12/09 09:12:24;;;;;;;105.20;22.60;;;1.50;99.90;;;;;;5036147;28;20543;-89
2022/12/09 09:14:53;;;;;;;54.00;21.03;;;1.50;99.90;;;;;;5037348;28;20527;-91
2022/12/09 09:17:20;;;;;;;108.73;22.50;;;1.60;99.90;;;;;;5039569;28;20515;-90
2022/12/09 09:19:47;;;;;;;77.43;18.87;;;1.50;99.90;;;;;;5041595;28;20451;-90
2022/12/09 09:22:14;;;;;;;52.57;18.50;;;1.50;99.90;;;;;;5041567;28;20429;-89
2022/12/09 09:24:41;;;;;;;75.73;20.73;;;1.50;99.90;;;;;;5033732;28;20448;-91
2022/12/09 09:27:08;;;;;;;93.33;20.10;;;1.50;99.90;;;;;;5041700;28;20559;-89
2022/12/09 09:29:35;;;;;;;55.93;20.07;;;1.60;99.90;;;;;;5039687;28;20460;-90
2022/12/09 09:32:04;;;;;;;82.53;20.10;;;1.60;99.90;;;;;;5041076;28;20535;-89
2022/12/09 09:34:31;;;;;;;91.30;19.80;;;1.70;99.90;;;;;;5041399;28;20966;-89
2022/12/09 09:36:58;;;;;;;46.13;24.47;;;1.60;99.90;;;;;;5040956;28;20494;-90
2022/12/09 09:39:25;;;;;;;50.33;18.93;;;1.70;99.90;;;;;;5039730;28;20635;-88
2022/12/09 09:41:54;;;;;;;63.10;17.90;;;1.60;99.90;;;;;;5038767;28;20443;-90
2022/12/09 09:44:27;;;;;;;58.50;18.40;;;1.20;99.90;;;;;;5036312;28;20431;-91
2022/12/09 09:46:56;;;;;;;34.30;17.37;;;1.30;99.90;;;;;;5034709;28;20456;-91
2022/12/09 09:49:35;;;;;;;57.10;19.50;;;1.50;99.90;;;;;;5046665;28;20568;-92
2022/12/09 09:52:09;;;;;;;59.20;18.93;;;1.50;99.90;;;;;;5047817;28;20447;-92
2022/12/09 09:54:36;;;;;;;47.83;16.57;;;1.40;99.90;;;;;;5047122;28;20555;-92
2022/12/09 09:57:12;;;;;;;31.67;17.00;;;1.70;99.90;;;;;;5047824;28;20431;-92
2022/12/09 09:59:52;;;;;;;57.70;18.97;;;1.80;99.90;;;;;;5047444;28;20479;-91
2022/12/09 10:02:31;;;;;;;38.47;16.70;;;1.70;99.90;;;;;;5049842;28;20459;-90
2022/12/09 10:05:10;;;;;;;34.23;15.43;;;1.10;99.90;;;;;;5047189;28;20454;-89
2022/12/09 10:07:40;;;;;;;22.57;14.33;;;0.80;99.90;;;;;;5045764;28;20480;-92
2022/12/09 10:10:17;;;;;;;24.40;15.47;;;1.10;99.90;;;;;;5046695;28;20448;-92
2022/12/09 10:12:54;;;;;;;35.07;16.43;;;1.30;99.90;;;;;;5046122;28;20875;-91
2022/12/09 10:15:27;;;;;;;40.37;17.13;;;1.50;99.90;;;;;;5046494;28;20534;-90
2022/12/09 10:18:07;;;;;;;28.90;16.57;;;1.70;99.90;;;;;;5048741;28;20444;-92
2022/12/09 10:20:36;;;;;;;37.83;16.90;;;1.20;99.90;;;;;;5048815;28;20515;-92
2022/12/09 10:23:05;;;;;;;29.90;17.27;;;1.50;99.90;;;;;;5052465;28;20450;-93
2022/12/09 10:25:36;;;;;;;34.10;23.40;;;1.60;99.90;;;;;;5050520;28;20906;-93
2022/12/09 10:28:08;;;;;;;28.70;17.50;;;1.70;99.90;;;;;;5051400;28;20290;-92
2022/12/09 10:30:35;;;;;;;29.73;16.37;;;1.90;99.90;;;;;;5053059;28;20472;-91
2022/12/09 10:33:02;;;;;;;30.10;17.23;;;2.00;99.90;;;;;;5054638;28;20459;-92
2022/12/09 10:35:31;;;;;;;28.27;17.63;;;2.00;99.90;;;;;;5053400;28;20448;-90
2022/12/09 10:38:07;;;;;;;39.07;17.80;;;2.00;99.90;;;;;;5052076;28;20432;-91
2022/12/09 10:40:38;;;;;;;31.15;18.92;;;1.90;99.90;;;;;;5052993;28;20436;-91
2022/12/09 10:43:36;;;;;;;33.30;18.57;;;1.90;99.90;;;;;;5047252;28;20230;-89
2022/12/09 10:46:07;;;;;;;31.03;18.93;;;1.90;99.90;;;;;;5045674;28;20523;-90
2022/12/09 10:48:37;;;;;;;40.17;19.50;;;1.70;99.90;;;;;;5043395;28;20494;-91
2022/12/09 10:51:06;;;;;;;35.37;19.80;;;1.80;99.90;;;;;;5044271;28;20452;-91
2022/12/09 10:53:36;;;;;;;29.50;17.57;;;1.70;99.90;;;;;;5041907;28;20466;-88
2022/12/09 10:56:04;;;;;;;48.80;19.03;;;1.80;99.90;;;;;;5042555;28;20515;-89
2022/12/09 10:58:32;;;;;;;39.95;26.33;;;1.80;99.90;;;;;;5046644;28;20446;-90
2022/12/09 11:01:06;;;;;;;32.10;20.00;;;1.80;99.90;;;;;;5052258;28;20267;-92
2022/12/09 11:03:38;;;;;;;35.97;20.00;;;2.00;99.90;;;;;;5051808;28;20440;-92
2022/12/09 11:06:26;;;;;;;38.80;20.00;;;1.90;99.90;;;;;;5052262;28;20460;-94
2022/12/09 11:08:58;;;;;;;35.80;18.10;;;2.00;99.90;;;;;;5050766;28;20491;-91
2022/12/09 11:11:40;;;;;;;35.63;18.63;;;1.60;99.90;;;;;;5048965;28;20463;-93
2022/12/09 11:14:21;;;;;;;34.33;19.13;;;1.50;99.90;;;;;;5049913;28;20382;-93
2022/12/09 11:16:49;;;;;;;36.57;19.87;;;1.60;99.90;;;;;;5047226;28;20259;-93
2022/12/09 11:19:16;;;;;;;36.13;20.43;;;1.70;99.90;;;;;;5049967;28;20444;-93
2022/12/09 11:21:43;;;;;;;34.93;20.00;;;1.80;99.90;;;;;;5048307;28;20468;-91
2022/12/09 11:24:23;;;;;;;39.20;20.30;;;2.00;99.90;;;;;;5049433;28;20480;-92
2022/12/09 11:26:50;;;;;;;32.20;20.40;;;2.10;99.90;;;;;;5040637;28;20440;-79
2022/12/09 11:29:18;;;;;;;32.20;19.73;;;2.00;99.90;;;;;;5035635;28;21069;-78
2022/12/09 11:31:47;;;;;;;40.03;25.63;;;2.00;99.90;;;;;;5035771;28;20431;-79
2022/12/09 11:34:17;;;;;;;39.93;22.53;;;2.20;99.90;;;;;;5035550;28;20191;-81
2022/12/09 11:36:49;;;;;;;37.90;21.50;;;2.20;99.90;;;;;;5035813;28;20456;-82
2022/12/09 11:39:22;;;;;;;32.60;20.10;;;2.00;99.90;;;;;;5035549;28;20475;-78
2022/12/09 11:44:38;;;;;;;33.33;19.97;;;1.90;99.90;;;;;;5035087;28;20500;-82
2022/12/09 11:47:09;;;;;;;34.20;21.37;;;1.90;99.90;;;;;;5035407;28;20457;-80
2022/12/09 11:49:44;;;;;;;39.67;21.23;;;2.10;99.90;;;;;;5035161;28;20964;-81
2022/12/09 11:52:24;;;;;;;36.73;21.37;;;2.10;99.90;;;;;;5035475;28;20440;-80
2022/12/09 11:55:03;;;;;;;33.17;21.70;;;2.00;99.90;;;;;;5035465;28;20819;-81
2022/12/09 11:57:36;;;;;;;38.10;21.00;;;2.10;99.90;;;;;;5035163;28;20443;-79
2022/12/09 12:00:13;;;;;;;39.03;22.83;;;2.30;99.90;;;;;;5035025;28;20429;-78
2022/12/09 12:02:45;;;;;;;36.73;21.03;;;2.50;99.90;;;;;;5035422;28;20451;-79
2022/12/09 12:05:20;;;;;;;38.40;22.53;;;2.60;99.90;;;;;;5035372;28;20448;-78
2022/12/09 12:07:52;;;;;;;37.80;22.37;;;2.60;99.90;;;;;;5035394;28;20467;-78
2022/12/09 12:10:24;;;;;;;48.50;22.53;;;2.80;99.90;;;;;;5036068;28;20448;-89
2022/12/09 12:13:02;;;;;;;36.37;22.10;;;2.10;99.90;;;;;;5035662;28;20456;-89
2022/12/09 12:15:38;;;;;;;38.07;22.20;;;2.20;99.90;;;;;;5034683;28;20448;-88
2022/12/09 12:18:12;;;;;;;37.23;21.40;;;2.10;99.90;;;;;;5036088;28;20927;-88
2022/12/09 12:20:49;;;;;;;37.57;21.73;;;2.20;99.90;;;;;;5036103;28;20456;-89
2022/12/09 12:23:44;;;;;;;38.97;21.17;;;2.20;99.90;;;;;;5036130;28;20448;-88
2022/12/09 12:26:19;;;;;;;35.10;20.73;;;1.60;99.90;;;;;;5033949;28;20459;-89
2022/12/09 12:29:03;;;;;;;37.10;22.53;;;1.70;99.90;;;;;;5035167;28;20487;-89
2022/12/09 12:31:48;;;;;;;40.17;22.00;;;1.70;99.90;;;;;;5035144;28;20452;-87
2022/12/09 12:34:26;;;;;;;35.47;21.10;;;1.60;99.90;;;;;;5035772;28;20448;-90
2022/12/09 12:37:01;;;;;;;36.43;22.57;;;1.90;99.90;;;;;;5036326;28;20464;-90
2022/12/09 12:39:40;;;;;;;40.27;23.27;;;1.80;99.90;;;;;;5035393;28;20466;-90
2022/12/09 12:42:21;;;;;;;43.75;28.05;;;1.60;99.90;;;;;;5034740;28;20435;-90
2022/12/09 12:47:46;;;;;;;41.17;24.50;;;2.10;99.90;;;;;;5035588;28;20431;-90
2022/12/09 12:50:29;;;;;;;39.37;23.30;;;2.20;99.90;;;;;;5034132;28;20483;-91
2022/12/09 12:53:05;;;;;;;39.87;22.73;;;2.30;99.90;;;;;;5035320;28;20425;-88